Terminal Aerodrome Forecast
Issued by NWS Boston, MA

Home | Current Version | Previous Version | Text Only | Print | Product List | Glossary On
Versions: 1 2 3 4 5 6 7 8 9 10 11 12 13 14 15 16 17 18 19 20 21 22 23 24
000
FTUS41 KBOX 221156 AAA
TAFPVD
TAF AMD
KPVD 221156Z 2212/2312 15005KT 4SM RA BR VCTS OVC050CB
     FM221300 00000KT 2SM +RA BR OVC025
     FM221400 00000KT 2SM RA BR OVC015
     FM221500 00000KT 2SM -RA BR OVC015
     FM222000 32010G19KT P6SM VCSH BKN015
     FM222200 33010G23KT P6SM SCT025
     FM230700 32010G17KT P6SM SKC
     FM231000 32006KT P6SM SKC=

USA.gov is the U.S. government's official web portal to all federal, state and local government web resources and services.